createdAt,value
2023-05-21T00:00:28.784Z,102507.59
2023-05-21T00:02:55.885Z,102502.72
2023-05-21T00:05:22.664Z,102503.09
2023-05-21T00:07:49.441Z,102494.75
2023-05-21T00:10:16.161Z,102499.25
2023-05-21T00:12:42.941Z,102496.13
2023-05-21T00:15:10.195Z,102488.47
2023-05-21T00:17:37.289Z,102487.97
2023-05-21T00:20:08.849Z,102492.28
2023-05-21T00:22:42.772Z,102479.81
2023-05-21T00:25:11.105Z,102489.91
2023-05-21T00:27:38.214Z,102490.47
2023-05-21T00:30:05.651Z,102489.97
2023-05-21T00:32:32.518Z,102481.78
2023-05-21T00:34:59.309Z,102483.72
2023-05-21T00:37:26.113Z,102483.44
2023-05-21T00:39:52.813Z,102477.72
2023-05-21T00:42:19.472Z,102476.34
2023-05-21T00:44:46.371Z,102475.97
2023-05-21T00:47:14.263Z,102475.31
2023-05-21T00:49:41.590Z,102475.81
2023-05-21T00:52:08.509Z,102469.22
2023-05-21T00:54:35.444Z,102472.75
2023-05-21T00:57:04.061Z,102465.38
2023-05-21T00:59:31.483Z,102465.38
2023-05-21T01:02:04.151Z,102458.19
2023-05-21T01:04:32.197Z,102458.25
2023-05-21T01:06:59.000Z,102462.09
2023-05-21T01:09:26.929Z,102456.25
2023-05-21T01:11:55.779Z,102459.94
2023-05-21T01:14:24.291Z,102456.31
2023-05-21T01:16:52.800Z,102458.75
2023-05-21T01:19:24.586Z,102461.66
2023-05-21T01:22:00.586Z,102456.63
2023-05-21T01:24:27.401Z,102455.81
2023-05-21T01:26:54.140Z,102458.63
2023-05-21T01:29:25.028Z,102448.03
2023-05-21T01:32:24.300Z,102446.13
2023-05-21T01:34:59.876Z,102448.84
2023-05-21T01:37:45.928Z,102448.50
2023-05-21T01:40:34.406Z,102452.84
2023-05-21T01:43:03.513Z,102450.81
2023-05-21T01:45:32.267Z,102438.59
2023-05-21T01:47:59.422Z,102444.03
2023-05-21T01:50:27.027Z,102446.91
2023-05-21T01:53:00.962Z,102439.28
2023-05-21T01:55:28.165Z,102443.44
2023-05-21T01:57:55.969Z,102434.31
2023-05-21T02:00:25.479Z,102439.75
2023-05-21T02:02:52.337Z,102439.44
2023-05-21T02:05:19.104Z,102438.47
2023-05-21T02:07:46.357Z,102435.97
2023-05-21T02:10:13.339Z,102434.06
2023-05-21T02:12:40.066Z,102434.28
2023-05-21T02:15:07.377Z,102433.03
2023-05-21T02:17:34.674Z,102434.84
2023-05-21T02:20:11.517Z,102432.28
2023-05-21T02:22:44.530Z,102423.38
2023-05-21T02:25:13.002Z,102421.38
2023-05-21T02:27:40.678Z,102421.94
2023-05-21T02:30:09.252Z,102424.00
2023-05-21T02:32:36.121Z,102433.78
2023-05-21T02:35:04.147Z,102425.22
2023-05-21T02:37:34.662Z,102424.63
2023-05-21T02:40:04.273Z,102417.53
2023-05-21T02:42:31.069Z,102417.28
2023-05-21T02:44:58.037Z,102419.13
2023-05-21T02:47:25.533Z,102419.16
2023-05-21T02:49:53.500Z,102421.38
2023-05-21T02:52:23.941Z,102420.91
2023-05-21T02:54:51.604Z,102418.03
2023-05-21T02:57:19.861Z,102416.97
2023-05-21T02:59:46.573Z,102409.44
2023-05-21T03:02:13.288Z,102401.28
2023-05-21T03:04:46.224Z,102399.94
2023-05-21T03:07:15.846Z,102400.97
2023-05-21T03:09:42.678Z,102405.63
2023-05-21T03:12:10.451Z,102399.22
2023-05-21T03:14:40.249Z,102400.16
2023-05-21T03:17:07.755Z,102405.41
2023-05-21T03:19:36.036Z,102391.69
2023-05-21T03:22:03.913Z,102397.13
2023-05-21T03:24:31.860Z,102395.47
2023-05-21T03:27:01.061Z,102400.13
2023-05-21T03:29:28.518Z,102390.03
2023-05-21T03:31:56.172Z,102390.19
2023-05-21T03:34:23.331Z,102390.50
2023-05-21T03:36:50.625Z,102389.81
2023-05-21T03:39:17.558Z,102381.47
2023-05-21T03:41:48.610Z,102387.72
2023-05-21T03:44:15.404Z,102380.75
2023-05-21T03:46:42.561Z,102384.47
2023-05-21T03:49:09.322Z,102386.09
2023-05-21T03:51:36.053Z,102384.53
2023-05-21T03:54:04.997Z,102373.34
2023-05-21T03:56:31.726Z,102377.91
2023-05-21T03:59:01.442Z,102370.84
2023-05-21T04:01:28.463Z,102370.03
2023-05-21T04:03:55.514Z,102367.28
2023-05-21T04:06:22.854Z,102368.88
2023-05-21T04:08:49.934Z,102370.13
2023-05-21T04:11:18.775Z,102357.34
2023-05-21T04:13:46.176Z,102370.91
2023-05-21T04:16:14.675Z,102359.16
2023-05-21T04:18:44.151Z,102353.69
2023-05-21T04:21:12.519Z,102349.03
2023-05-21T04:23:39.620Z,102346.53
2023-05-21T04:26:07.690Z,102335.47
2023-05-21T04:28:35.412Z,102335.50
2023-05-21T04:31:02.252Z,102331.69
2023-05-21T04:33:31.442Z,102337.69
2023-05-21T04:35:58.341Z,102339.19
2023-05-21T04:38:27.940Z,102343.94
2023-05-21T04:40:55.716Z,102352.09
2023-05-21T04:43:25.831Z,102352.81
2023-05-21T04:45:54.982Z,102344.47
2023-05-21T04:48:27.079Z,102349.91
2023-05-21T04:50:55.796Z,102356.25
2023-05-21T04:53:23.740Z,102352.19
2023-05-21T04:55:50.463Z,102356.22
2023-05-21T04:58:20.139Z,102357.63
2023-05-21T05:00:47.218Z,102360.00
2023-05-21T05:03:14.537Z,102351.34
2023-05-21T05:05:41.985Z,102348.88
2023-05-21T05:08:08.814Z,102336.78
2023-05-21T05:10:37.984Z,102344.03
2023-05-21T05:13:04.641Z,102343.09
2023-05-21T05:15:31.703Z,102348.00
2023-05-21T05:17:58.440Z,102344.31
2023-05-21T05:20:25.402Z,102338.94
2023-05-21T05:22:52.039Z,102335.50
2023-05-21T05:25:18.847Z,102333.06
2023-05-21T05:27:45.589Z,102326.47
2023-05-21T05:30:12.459Z,102330.44
2023-05-21T05:32:39.168Z,102334.31
2023-05-21T05:35:06.937Z,102328.81
2023-05-21T05:37:33.701Z,102341.69
2023-05-21T05:40:00.555Z,102334.84
2023-05-21T05:42:27.357Z,102332.91
2023-05-21T05:44:54.065Z,102335.84
2023-05-21T05:47:23.350Z,102340.16
2023-05-21T05:49:50.276Z,102339.94
2023-05-21T05:52:17.041Z,102334.84
2023-05-21T05:54:43.736Z,102336.50
2023-05-21T05:57:10.595Z,102330.38
2023-05-21T05:59:37.320Z,102318.75
2023-05-21T06:02:04.078Z,102321.47
2023-05-21T06:04:31.022Z,102313.66
2023-05-21T06:06:57.956Z,102312.13
2023-05-21T06:09:25.059Z,102306.38
2023-05-21T06:11:52.088Z,102315.72
2023-05-21T06:14:18.858Z,102309.47
2023-05-21T06:16:45.647Z,102305.94
2023-05-21T06:19:12.413Z,102304.75
2023-05-21T06:21:39.169Z,102302.44
2023-05-21T06:24:07.186Z,102299.81
2023-05-21T06:26:37.664Z,102313.81
2023-05-21T06:29:04.467Z,102307.78
2023-05-21T06:31:32.853Z,102303.47
2023-05-21T06:34:00.582Z,102305.72
2023-05-21T06:36:29.965Z,102309.66
2023-05-21T06:38:59.582Z,102313.97
2023-05-21T06:41:26.533Z,102314.25
2023-05-21T06:43:53.234Z,102315.31
2023-05-21T06:46:20.036Z,102312.59
2023-05-21T06:48:46.785Z,102313.16
2023-05-21T06:51:13.715Z,102316.31
2023-05-21T06:53:40.571Z,102318.59
2023-05-21T06:56:07.656Z,102314.94
2023-05-21T06:58:34.328Z,102326.47
2023-05-21T07:01:01.764Z,102325.00
2023-05-21T07:03:30.783Z,102330.19
2023-05-21T07:05:58.018Z,102322.31
2023-05-21T07:08:24.930Z,102317.97
2023-05-21T07:10:51.608Z,102317.69
2023-05-21T07:13:18.435Z,102313.53
2023-05-21T07:15:45.197Z,102315.41
2023-05-21T07:18:12.185Z,102309.16
2023-05-21T07:20:39.050Z,102313.88
2023-05-21T07:23:05.889Z,102308.22
2023-05-21T07:25:32.676Z,102309.09
2023-05-21T07:27:59.358Z,102314.34
2023-05-21T07:30:26.301Z,102308.09
2023-05-21T07:32:53.091Z,102306.38
2023-05-21T07:35:19.961Z,102317.78
2023-05-21T07:37:47.851Z,102314.47
2023-05-21T07:40:14.786Z,102308.69
2023-05-21T07:42:41.628Z,102310.44
2023-05-21T07:45:08.702Z,102304.72
2023-05-21T07:47:35.566Z,102302.34
2023-05-21T07:50:02.286Z,102293.59
2023-05-21T07:52:29.191Z,102298.72
2023-05-21T07:54:55.922Z,102294.56
2023-05-21T07:57:23.347Z,102297.31
2023-05-21T07:59:51.168Z,102285.94
2023-05-21T08:02:17.896Z,102286.63
2023-05-21T08:04:44.689Z,102288.47
2023-05-21T08:07:12.958Z,102293.94
2023-05-21T08:09:39.689Z,102282.88
2023-05-21T08:12:06.968Z,102284.03
2023-05-21T08:14:33.674Z,102282.75
2023-05-21T08:17:00.672Z,102276.88
2023-05-21T08:19:27.422Z,102280.75
2023-05-21T08:21:54.263Z,102271.06
2023-05-21T08:24:21.195Z,102272.03
2023-05-21T08:26:50.610Z,102267.59
2023-05-21T08:29:17.534Z,102270.56
2023-05-21T08:31:44.251Z,102269.44
2023-05-21T08:34:12.366Z,102278.59
2023-05-21T08:36:39.119Z,102274.69
2023-05-21T08:39:06.094Z,102282.81
2023-05-21T08:41:35.622Z,102282.88
2023-05-21T08:44:02.837Z,102290.47
2023-05-21T08:46:34.639Z,102282.34
2023-05-21T08:49:03.399Z,102273.03
2023-05-21T08:51:31.404Z,102278.22
2023-05-21T08:54:01.682Z,102287.53
2023-05-21T08:56:31.444Z,102281.56
2023-05-21T08:58:59.627Z,102272.81
2023-05-21T09:01:27.057Z,102271.31
2023-05-21T09:04:16.259Z,102269.19
2023-05-21T09:06:47.940Z,102270.03
2023-05-21T09:09:34.900Z,102250.88
2023-05-21T09:12:01.749Z,102245.88
2023-05-21T09:14:29.228Z,102261.00
2023-05-21T09:16:56.056Z,102243.25
2023-05-21T09:19:23.057Z,102242.63
2023-05-21T09:21:53.230Z,102248.88
2023-05-21T09:24:25.187Z,102247.78
2023-05-21T09:26:52.548Z,102249.63
2023-05-21T09:29:19.416Z,102259.00
2023-05-21T09:31:46.288Z,102242.63
2023-05-21T09:34:14.286Z,102254.78
2023-05-21T09:36:41.047Z,102246.38
2023-05-21T09:39:08.608Z,102255.03
2023-05-21T09:41:36.263Z,102258.13
2023-05-21T09:44:03.750Z,102264.28
2023-05-21T09:46:41.467Z,102275.53
2023-05-21T09:49:24.803Z,102267.03
2023-05-21T09:51:56.043Z,102274.78
2023-05-21T09:54:24.252Z,102265.91
2023-05-21T09:56:54.014Z,102270.66
2023-05-21T09:59:21.140Z,102262.28
2023-05-21T10:01:52.617Z,102261.75
2023-05-21T10:04:23.202Z,102260.47
2023-05-21T10:06:50.978Z,102256.38
2023-05-21T10:09:19.403Z,102232.41
2023-05-21T10:11:48.807Z,102235.13
2023-05-21T10:14:22.871Z,102223.38
2023-05-21T10:16:52.757Z,102231.19
2023-05-21T10:19:20.327Z,102242.81
2023-05-21T10:21:47.971Z,102243.44
2023-05-21T10:24:15.763Z,102236.03
2023-05-21T10:26:51.238Z,102232.81
2023-05-21T10:29:19.893Z,102223.22
2023-05-21T10:31:49.928Z,102212.66
2023-05-21T10:34:17.620Z,102214.22
2023-05-21T10:36:46.056Z,102225.91
2023-05-21T10:39:13.509Z,102215.38
2023-05-21T10:42:12.508Z,102215.53
2023-05-21T10:45:00.531Z,102194.84
2023-05-21T10:48:03.485Z,102186.91
2023-05-21T10:51:08.224Z,102197.00
2023-05-21T10:53:51.248Z,102188.03
2023-05-21T10:56:29.375Z,102167.72
2023-05-21T10:59:12.836Z,102179.94
2023-05-21T11:01:45.199Z,102181.38
2023-05-21T11:04:12.410Z,102176.69
2023-05-21T11:06:39.140Z,102166.38
2023-05-21T11:09:16.337Z,102173.25
2023-05-21T11:11:51.315Z,102170.34
2023-05-21T11:14:39.332Z,102164.72
2023-05-21T11:17:09.257Z,102173.81
2023-05-21T11:19:38.431Z,102188.19
2023-05-21T11:22:26.795Z,102189.88
2023-05-21T11:24:55.192Z,102180.75
2023-05-21T11:27:42.124Z,102169.59
2023-05-21T11:30:14.529Z,102175.69
2023-05-21T11:33:11.329Z,102171.22
2023-05-21T11:35:50.413Z,102158.97
2023-05-21T11:38:18.241Z,102149.81
2023-05-21T11:40:54.917Z,102138.25
2023-05-21T11:43:21.979Z,102154.78
2023-05-21T11:45:48.919Z,102158.34
2023-05-21T11:48:16.213Z,102168.31
2023-05-21T11:50:43.014Z,102139.78
2023-05-21T11:53:12.220Z,102131.31
2023-05-21T11:55:43.524Z,102124.81
2023-05-21T11:58:13.739Z,102124.38
2023-05-21T12:00:40.878Z,102119.44
2023-05-21T12:03:08.523Z,102143.28
2023-05-21T12:05:49.236Z,102152.28
2023-05-21T12:08:25.834Z,102125.75
2023-05-21T12:11:00.194Z,102135.31
2023-05-21T12:13:27.848Z,102131.59
2023-05-21T12:15:54.847Z,102133.00
2023-05-21T12:18:21.908Z,102138.19
2023-05-21T12:20:51.999Z,102117.81
2023-05-21T12:23:25.908Z,102114.69
2023-05-21T12:25:53.788Z,102120.81
2023-05-21T12:28:22.090Z,102104.50
2023-05-21T12:30:48.863Z,102117.22
2023-05-21T12:33:17.955Z,102122.03
2023-05-21T12:35:50.058Z,102104.19
2023-05-21T12:38:17.133Z,102108.81
2023-05-21T12:40:45.660Z,102116.97
2023-05-21T12:43:12.637Z,102099.38
2023-05-21T12:45:39.710Z,102118.94
2023-05-21T12:48:08.147Z,102104.28
2023-05-21T12:50:38.782Z,102101.00
2023-05-21T12:53:09.492Z,102090.72
2023-05-21T12:55:36.235Z,102114.75
2023-05-21T12:58:09.178Z,102115.22
2023-05-21T13:00:36.641Z,102109.84
2023-05-21T13:03:06.232Z,102112.72
2023-05-21T13:05:33.360Z,102121.81
2023-05-21T13:08:00.120Z,102143.72
2023-05-21T13:10:26.833Z,102129.66
2023-05-21T13:12:53.588Z,102123.41
2023-05-21T13:15:20.488Z,102128.66
2023-05-21T13:17:49.737Z,102120.97
2023-05-21T13:20:26.310Z,102108.31
2023-05-21T13:22:54.023Z,102093.88
2023-05-21T13:25:28.811Z,102082.41
2023-05-21T13:27:56.164Z,102080.72
2023-05-21T13:30:22.840Z,102059.13
2023-05-21T13:32:50.050Z,102070.56
2023-05-21T13:35:17.363Z,102066.25
2023-05-21T13:37:45.031Z,102082.22
2023-05-21T13:40:18.436Z,102073.50
2023-05-21T13:42:47.215Z,102062.59
2023-05-21T13:45:16.665Z,102037.44
2023-05-21T13:47:44.528Z,102041.03
2023-05-21T13:50:12.044Z,102076.81
2023-05-21T13:52:39.072Z,102071.56
2023-05-21T13:55:06.535Z,102065.84
2023-05-21T13:57:33.496Z,102065.25
2023-05-21T14:00:01.119Z,102068.50
2023-05-21T14:02:28.272Z,102074.44
2023-05-21T14:04:55.100Z,102064.19
2023-05-21T14:07:22.303Z,102041.63
2023-05-21T14:09:49.191Z,102051.81
2023-05-21T14:12:16.975Z,102049.84
2023-05-21T14:14:44.160Z,102024.97
2023-05-21T14:17:11.145Z,102049.19
2023-05-21T14:19:37.916Z,102071.00
2023-05-21T14:22:04.815Z,102032.34
2023-05-21T14:24:31.500Z,102046.31
2023-05-21T14:26:58.411Z,102047.31
2023-05-21T14:29:25.144Z,102050.34
2023-05-21T14:31:51.877Z,102063.97
2023-05-21T14:34:18.592Z,102056.84
2023-05-21T14:36:45.248Z,102063.94
2023-05-21T14:39:12.026Z,102052.88
2023-05-21T14:41:39.437Z,102058.22
2023-05-21T14:44:06.174Z,102040.13
2023-05-21T14:46:33.069Z,102038.81
2023-05-21T14:49:03.792Z,102049.59
2023-05-21T14:51:31.571Z,102064.75
2023-05-21T14:53:58.704Z,102077.41
2023-05-21T14:56:28.331Z,102080.50
2023-05-21T14:58:55.483Z,102072.75
2023-05-21T15:01:22.340Z,102077.31
2023-05-21T15:03:49.378Z,102087.50
2023-05-21T15:06:18.608Z,102097.50
2023-05-21T15:08:45.405Z,102091.41
2023-05-21T15:11:12.068Z,102084.69
2023-05-21T15:13:39.136Z,102092.94
2023-05-21T15:16:06.248Z,102105.34
2023-05-21T15:18:33.452Z,102088.47
2023-05-21T15:21:00.938Z,102104.66
2023-05-21T15:23:27.821Z,102101.47
2023-05-21T15:25:54.573Z,102107.34
2023-05-21T15:28:22.941Z,102103.28
2023-05-21T15:30:49.940Z,102102.13
2023-05-21T15:33:16.724Z,102098.78
2023-05-21T15:35:43.841Z,102096.25
2023-05-21T15:38:11.069Z,102106.91
2023-05-21T15:40:41.249Z,102101.69
2023-05-21T15:43:08.161Z,102110.81
2023-05-21T15:45:35.176Z,102110.72
2023-05-21T15:48:02.079Z,102115.22
2023-05-21T15:50:28.812Z,102110.88
2023-05-21T15:52:56.364Z,102117.97
2023-05-21T15:55:23.246Z,102114.34
2023-05-21T15:57:49.945Z,102108.22
2023-05-21T16:00:16.705Z,102104.13
2023-05-21T16:02:43.674Z,102107.66
2023-05-21T16:05:10.550Z,102102.59
2023-05-21T16:07:38.435Z,102105.53
2023-05-21T16:10:08.221Z,102108.16
2023-05-21T16:12:34.913Z,102106.81
2023-05-21T16:15:01.633Z,102110.34
2023-05-21T16:17:28.387Z,102091.28
2023-05-21T16:19:55.101Z,102098.13
2023-05-21T16:22:23.222Z,102092.56
2023-05-21T16:24:50.032Z,102102.56
2023-05-21T16:27:16.806Z,102089.94
2023-05-21T16:29:43.550Z,102092.25
2023-05-21T16:32:14.054Z,102086.16
2023-05-21T16:34:41.165Z,102082.06
2023-05-21T16:37:11.332Z,102089.72
2023-05-21T16:39:38.294Z,102090.91
2023-05-21T16:42:05.168Z,102091.91
2023-05-21T16:44:32.278Z,102093.06
2023-05-21T16:46:59.621Z,102083.47
2023-05-21T16:49:27.346Z,102082.81
2023-05-21T16:51:54.026Z,102086.66
2023-05-21T16:54:21.111Z,102091.63
2023-05-21T16:56:47.794Z,102095.06
2023-05-21T16:59:14.509Z,102085.59
2023-05-21T17:01:42.740Z,102088.78
2023-05-21T17:04:09.681Z,102097.34
2023-05-21T17:06:36.458Z,102099.66
2023-05-21T17:09:03.935Z,102108.63
2023-05-21T17:11:31.084Z,102107.72
2023-05-21T17:13:57.885Z,102093.56
2023-05-21T17:16:25.084Z,102102.50
2023-05-21T17:18:52.090Z,102097.31
2023-05-21T17:21:19.431Z,102103.38
2023-05-21T17:23:46.791Z,102104.00
2023-05-21T17:26:13.974Z,102092.97
2023-05-21T17:28:40.886Z,102097.84
2023-05-21T17:31:08.994Z,102099.38
2023-05-21T17:33:37.501Z,102099.75
2023-05-21T17:36:04.571Z,102112.50
2023-05-21T17:38:31.301Z,102102.28
2023-05-21T17:40:59.024Z,102116.25
2023-05-21T17:43:27.568Z,102120.38
2023-05-21T17:45:54.296Z,102118.44
2023-05-21T17:48:21.266Z,102123.66
2023-05-21T17:50:48.056Z,102123.16
2023-05-21T17:53:15.500Z,102122.91
2023-05-21T17:55:42.218Z,102120.06
2023-05-21T17:58:10.004Z,102124.16
2023-05-21T18:00:36.848Z,102121.28
2023-05-21T18:03:03.986Z,102115.94
2023-05-21T18:05:30.788Z,102119.44
2023-05-21T18:07:57.519Z,102120.81
2023-05-21T18:10:24.309Z,102128.31
2023-05-21T18:12:51.030Z,102116.44
2023-05-21T18:15:17.733Z,102125.00
2023-05-21T18:17:44.555Z,102122.31
2023-05-21T18:20:12.114Z,102128.94
2023-05-21T18:22:38.836Z,102128.84
2023-05-21T18:25:06.134Z,102127.56
2023-05-21T18:27:32.768Z,102116.56
2023-05-21T18:30:02.466Z,102121.06
2023-05-21T18:32:29.543Z,102128.19
2023-05-21T18:34:58.030Z,102116.03
2023-05-21T18:37:25.791Z,102116.84
2023-05-21T18:39:52.559Z,102115.78
2023-05-21T18:42:19.240Z,102122.72
2023-05-21T18:44:46.513Z,102120.75
2023-05-21T18:47:13.778Z,102128.03
2023-05-21T18:49:40.463Z,102125.88
2023-05-21T18:52:07.669Z,102123.63
2023-05-21T18:54:34.463Z,102121.09
2023-05-21T18:57:01.254Z,102118.13
2023-05-21T18:59:31.451Z,102115.41
2023-05-21T19:01:58.245Z,102117.03
2023-05-21T19:04:25.053Z,102111.75
2023-05-21T19:06:51.889Z,102114.25
2023-05-21T19:09:18.569Z,102119.75
2023-05-21T19:11:45.512Z,102122.00
2023-05-21T19:14:12.181Z,102121.75
2023-05-21T19:16:38.934Z,102117.91
2023-05-21T19:19:06.085Z,102114.25
2023-05-21T19:21:33.133Z,102115.00
2023-05-21T19:23:59.876Z,102119.88
2023-05-21T19:26:26.729Z,102118.41
2023-05-21T19:28:54.635Z,102123.88
2023-05-21T19:31:22.950Z,102118.75
2023-05-21T19:33:50.007Z,102125.59
2023-05-21T19:36:16.961Z,102119.25
2023-05-21T19:38:50.712Z,102126.50
2023-05-21T19:41:18.571Z,102123.63
2023-05-21T19:43:45.941Z,102125.50
2023-05-21T19:46:13.231Z,102128.84
2023-05-21T19:48:40.068Z,102127.81
2023-05-21T19:51:06.800Z,102131.59
2023-05-21T19:53:34.804Z,102140.06
2023-05-21T19:56:01.487Z,102137.34
2023-05-21T19:58:30.373Z,102135.06
2023-05-21T20:00:59.248Z,102134.47
2023-05-21T20:03:27.157Z,102130.31
2023-05-21T20:05:54.524Z,102139.47
2023-05-21T20:08:21.401Z,102130.81
2023-05-21T20:10:51.446Z,102137.81
2023-05-21T20:13:19.244Z,102134.69
2023-05-21T20:15:47.901Z,102137.31
2023-05-21T20:18:15.502Z,102135.31
2023-05-21T20:20:43.154Z,102139.47
2023-05-21T20:23:09.846Z,102144.78
2023-05-21T20:25:36.570Z,102131.78
2023-05-21T20:28:04.113Z,102145.31
2023-05-21T20:30:51.364Z,102136.53
2023-05-21T20:33:18.350Z,102131.47
2023-05-21T20:35:44.997Z,102141.56
2023-05-21T20:38:12.638Z,102132.69
2023-05-21T20:40:39.613Z,102133.22
2023-05-21T20:43:06.972Z,102143.66
2023-05-21T20:45:36.141Z,102141.09
2023-05-21T20:48:03.478Z,102143.22
2023-05-21T20:50:30.285Z,102148.41
2023-05-21T20:52:58.420Z,102146.06
2023-05-21T20:55:25.066Z,102146.81
2023-05-21T20:57:51.865Z,102158.19
2023-05-21T21:00:19.089Z,102158.97
2023-05-21T21:02:46.108Z,102163.88
2023-05-21T21:05:12.884Z,102157.06
2023-05-21T21:07:40.095Z,102162.94
2023-05-21T21:10:07.256Z,102159.16
2023-05-21T21:12:33.937Z,102156.91
2023-05-21T21:15:00.665Z,102161.13
2023-05-21T21:17:27.414Z,102158.31
2023-05-21T21:19:54.122Z,102165.78
2023-05-21T21:22:21.018Z,102158.91
2023-05-21T21:24:47.983Z,102160.91
2023-05-21T21:27:14.831Z,102153.56
2023-05-21T21:29:41.551Z,102149.81
2023-05-21T21:32:08.396Z,102145.19
2023-05-21T21:34:35.301Z,102142.16
2023-05-21T21:37:02.046Z,102149.91
2023-05-21T21:39:31.359Z,102152.78
2023-05-21T21:41:58.146Z,102156.63
2023-05-21T21:44:24.913Z,102147.16
2023-05-21T21:46:51.606Z,102153.59
2023-05-21T21:49:18.329Z,102156.38
2023-05-21T21:51:45.150Z,102155.41
2023-05-21T21:54:12.203Z,102156.31
2023-05-21T21:56:39.059Z,102157.44
2023-05-21T21:59:05.941Z,102155.25
2023-05-21T22:01:33.140Z,102156.25
2023-05-21T22:03:59.885Z,102152.53
2023-05-21T22:06:27.666Z,102150.53
2023-05-21T22:08:54.680Z,102156.25
2023-05-21T22:11:21.969Z,102151.22
2023-05-21T22:13:49.032Z,102144.75
2023-05-21T22:16:15.918Z,102147.81
2023-05-21T22:18:42.750Z,102136.41
2023-05-21T22:21:10.917Z,102150.09
2023-05-21T22:23:38.767Z,102146.28
2023-05-21T22:26:06.326Z,102139.69
2023-05-21T22:28:33.113Z,102142.03
2023-05-21T22:30:59.923Z,102140.28
2023-05-21T22:33:26.925Z,102138.59
2023-05-21T22:35:54.561Z,102135.31
2023-05-21T22:38:22.084Z,102131.44
2023-05-21T22:40:48.919Z,102131.41
2023-05-21T22:43:15.742Z,102130.19
2023-05-21T22:45:44.288Z,102135.38
2023-05-21T22:48:11.085Z,102134.72
2023-05-21T22:50:39.150Z,102131.66
2023-05-21T22:53:06.903Z,102133.28
2023-05-21T22:55:33.592Z,102124.75
2023-05-21T22:58:00.337Z,102129.13
2023-05-21T23:00:27.441Z,102125.22
2023-05-21T23:02:54.752Z,102122.81
2023-05-21T23:05:22.218Z,102121.91
2023-05-21T23:07:49.179Z,102118.09
2023-05-21T23:10:15.969Z,102118.75
2023-05-21T23:12:42.699Z,102113.28
2023-05-21T23:15:10.749Z,102112.63
2023-05-21T23:17:38.969Z,102123.13
2023-05-21T23:20:07.416Z,102119.94
2023-05-21T23:22:34.850Z,102117.47
2023-05-21T23:25:02.012Z,102114.81
2023-05-21T23:27:29.283Z,102114.28
2023-05-21T23:29:56.433Z,102116.25
2023-05-21T23:32:23.665Z,102108.56
2023-05-21T23:34:50.779Z,102104.00
2023-05-21T23:37:17.661Z,102095.06
2023-05-21T23:39:48.212Z,102097.59
2023-05-21T23:42:18.482Z,102091.81
2023-05-21T23:44:45.268Z,102096.94
2023-05-21T23:47:12.185Z,102087.66
2023-05-21T23:49:39.511Z,102096.41
2023-05-21T23:52:06.716Z,102086.78
2023-05-21T23:54:33.521Z,102088.66
2023-05-21T23:57:00.207Z,102088.88
2023-05-21T23:59:27.081Z,102084.47
